sensor_id;sensor_type;location;lat;lon;timestamp;P1;durP1;ratioP1;P2;durP2;ratioP2
19800;SDS011;10060;48.274;12.214;2023-03-25T00:01:36;4.30;;;1.53;;
19800;SDS011;10060;48.274;12.214;2023-03-25T00:04:38;3.23;;;1.67;;
19800;SDS011;10060;48.274;12.214;2023-03-25T00:07:40;1.60;;;1.50;;
19800;SDS011;10060;48.274;12.214;2023-03-25T00:10:43;1.90;;;1.70;;
19800;SDS011;10060;48.274;12.214;2023-03-25T00:13:45;1.80;;;1.63;;
19800;SDS011;10060;48.274;12.214;2023-03-25T00:16:48;1.83;;;1.73;;
19800;SDS011;10060;48.274;12.214;2023-03-25T00:19:51;2.50;;;2.10;;
19800;SDS011;10060;48.274;12.214;2023-03-25T00:22:54;2.60;;;1.60;;
19800;SDS011;10060;48.274;12.214;2023-03-25T00:25:57;2.07;;;1.67;;
19800;SDS011;10060;48.274;12.214;2023-03-25T00:29:00;3.47;;;1.70;;
19800;SDS011;10060;48.274;12.214;2023-03-25T00:32:02;2.00;;;1.80;;
19800;SDS011;10060;48.274;12.214;2023-03-25T00:35:04;3.40;;;1.63;;
19800;SDS011;10060;48.274;12.214;2023-03-25T00:38:07;3.67;;;1.87;;
19800;SDS011;10060;48.274;12.214;2023-03-25T00:41:11;4.27;;;1.80;;
19800;SDS011;10060;48.274;12.214;2023-03-25T00:44:16;2.03;;;1.80;;
19800;SDS011;10060;48.274;12.214;2023-03-25T00:47:18;2.13;;;1.73;;
19800;SDS011;10060;48.274;12.214;2023-03-25T00:50:21;4.17;;;1.77;;
19800;SDS011;10060;48.274;12.214;2023-03-25T00:53:23;3.80;;;1.53;;
19800;SDS011;10060;48.274;12.214;2023-03-25T00:56:27;4.77;;;1.80;;
19800;SDS011;10060;48.274;12.214;2023-03-25T00:59:29;2.13;;;1.67;;
19800;SDS011;10060;48.274;12.214;2023-03-25T01:02:31;4.80;;;1.83;;
19800;SDS011;10060;48.274;12.214;2023-03-25T01:05:33;4.17;;;2.10;;
19800;SDS011;10060;48.274;12.214;2023-03-25T01:08:35;2.60;;;1.70;;
19800;SDS011;10060;48.274;12.214;2023-03-25T01:11:40;1.87;;;1.60;;
19800;SDS011;10060;48.274;12.214;2023-03-25T01:14:43;1.67;;;1.57;;
19800;SDS011;10060;48.274;12.214;2023-03-25T01:17:45;2.90;;;1.60;;
19800;SDS011;10060;48.274;12.214;2023-03-25T01:20:47;2.27;;;1.50;;
19800;SDS011;10060;48.274;12.214;2023-03-25T01:23:49;2.13;;;1.63;;
19800;SDS011;10060;48.274;12.214;2023-03-25T01:26:53;4.03;;;2.00;;
19800;SDS011;10060;48.274;12.214;2023-03-25T01:29:55;2.10;;;1.40;;
19800;SDS011;10060;48.274;12.214;2023-03-25T01:32:57;1.70;;;1.60;;
19800;SDS011;10060;48.274;12.214;2023-03-25T01:35:59;3.63;;;1.50;;
19800;SDS011;10060;48.274;12.214;2023-03-25T01:39:02;1.83;;;1.70;;
19800;SDS011;10060;48.274;12.214;2023-03-25T01:42:06;4.00;;;1.70;;
19800;SDS011;10060;48.274;12.214;2023-03-25T01:45:16;3.23;;;1.73;;
19800;SDS011;10060;48.274;12.214;2023-03-25T01:48:20;3.93;;;1.67;;
19800;SDS011;10060;48.274;12.214;2023-03-25T01:51:25;1.87;;;1.70;;
19800;SDS011;10060;48.274;12.214;2023-03-25T01:54:28;2.77;;;1.60;;
19800;SDS011;10060;48.274;12.214;2023-03-25T01:57:31;1.97;;;1.70;;
19800;SDS011;10060;48.274;12.214;2023-03-25T02:00:33;2.33;;;1.90;;
19800;SDS011;10060;48.274;12.214;2023-03-25T02:03:36;2.33;;;2.00;;
19800;SDS011;10060;48.274;12.214;2023-03-25T02:06:39;2.33;;;1.70;;
19800;SDS011;10060;48.274;12.214;2023-03-25T02:09:43;3.27;;;1.57;;
19800;SDS011;10060;48.274;12.214;2023-03-25T02:12:46;4.60;;;1.93;;
19800;SDS011;10060;48.274;12.214;2023-03-25T02:15:56;3.43;;;1.90;;
19800;SDS011;10060;48.274;12.214;2023-03-25T02:19:06;2.90;;;1.70;;
19800;SDS011;10060;48.274;12.214;2023-03-25T02:22:24;1.57;;;1.37;;
19800;SDS011;10060;48.274;12.214;2023-03-25T02:25:43;1.50;;;1.40;;
19800;SDS011;10060;48.274;12.214;2023-03-25T02:28:52;3.70;;;1.90;;
19800;SDS011;10060;48.274;12.214;2023-03-25T02:32:00;2.97;;;1.73;;
19800;SDS011;10060;48.274;12.214;2023-03-25T02:35:14;1.63;;;1.50;;
19800;SDS011;10060;48.274;12.214;2023-03-25T02:38:30;2.20;;;1.60;;
19800;SDS011;10060;48.274;12.214;2023-03-25T02:41:37;4.47;;;1.60;;
19800;SDS011;10060;48.274;12.214;2023-03-25T02:44:40;2.50;;;1.73;;
19800;SDS011;10060;48.274;12.214;2023-03-25T02:47:46;2.97;;;1.80;;
19800;SDS011;10060;48.274;12.214;2023-03-25T02:50:50;1.80;;;1.50;;
19800;SDS011;10060;48.274;12.214;2023-03-25T02:53:54;2.90;;;1.80;;
19800;SDS011;10060;48.274;12.214;2023-03-25T02:56:57;2.27;;;1.50;;
19800;SDS011;10060;48.274;12.214;2023-03-25T03:00:00;3.90;;;1.30;;
19800;SDS011;10060;48.274;12.214;2023-03-25T03:03:09;2.77;;;1.60;;
19800;SDS011;10060;48.274;12.214;2023-03-25T03:06:13;3.07;;;1.50;;
19800;SDS011;10060;48.274;12.214;2023-03-25T03:09:21;1.63;;;1.27;;
19800;SDS011;10060;48.274;12.214;2023-03-25T03:12:36;2.40;;;1.50;;
19800;SDS011;10060;48.274;12.214;2023-03-25T03:15:43;3.50;;;1.50;;
19800;SDS011;10060;48.274;12.214;2023-03-25T03:18:49;4.67;;;1.57;;
19800;SDS011;10060;48.274;12.214;2023-03-25T03:21:53;4.37;;;1.47;;
19800;SDS011;10060;48.274;12.214;2023-03-25T03:25:02;4.83;;;1.50;;
19800;SDS011;10060;48.274;12.214;2023-03-25T03:28:08;2.77;;;1.60;;
19800;SDS011;10060;48.274;12.214;2023-03-25T03:31:13;4.03;;;1.43;;
19800;SDS011;10060;48.274;12.214;2023-03-25T03:34:18;5.20;;;1.70;;
19800;SDS011;10060;48.274;12.214;2023-03-25T03:37:22;3.33;;;1.50;;
19800;SDS011;10060;48.274;12.214;2023-03-25T03:40:28;1.60;;;1.50;;
19800;SDS011;10060;48.274;12.214;2023-03-25T03:43:32;5.10;;;1.70;;
19800;SDS011;10060;48.274;12.214;2023-03-25T03:46:37;3.37;;;1.27;;
19800;SDS011;10060;48.274;12.214;2023-03-25T03:49:41;2.67;;;1.33;;
19800;SDS011;10060;48.274;12.214;2023-03-25T03:52:46;3.83;;;1.30;;
19800;SDS011;10060;48.274;12.214;2023-03-25T03:55:52;3.43;;;1.43;;
19800;SDS011;10060;48.274;12.214;2023-03-25T03:59:00;1.77;;;1.47;;
19800;SDS011;10060;48.274;12.214;2023-03-25T04:02:05;3.77;;;1.60;;
19800;SDS011;10060;48.274;12.214;2023-03-25T04:05:10;2.80;;;1.40;;
19800;SDS011;10060;48.274;12.214;2023-03-25T04:08:13;4.33;;;1.63;;
19800;SDS011;10060;48.274;12.214;2023-03-25T04:11:22;3.53;;;1.53;;
19800;SDS011;10060;48.274;12.214;2023-03-25T04:14:26;3.10;;;1.43;;
19800;SDS011;10060;48.274;12.214;2023-03-25T04:17:28;1.50;;;1.40;;
19800;SDS011;10060;48.274;12.214;2023-03-25T04:20:32;3.00;;;1.47;;
19800;SDS011;10060;48.274;12.214;2023-03-25T04:23:35;6.20;;;1.60;;
19800;SDS011;10060;48.274;12.214;2023-03-25T04:26:41;3.87;;;1.53;;
19800;SDS011;10060;48.274;12.214;2023-03-25T04:29:43;1.93;;;1.47;;
19800;SDS011;10060;48.274;12.214;2023-03-25T04:32:46;1.97;;;1.50;;
19800;SDS011;10060;48.274;12.214;2023-03-25T04:35:50;2.83;;;1.40;;
19800;SDS011;10060;48.274;12.214;2023-03-25T04:38:53;1.87;;;1.60;;
19800;SDS011;10060;48.274;12.214;2023-03-25T04:41:57;2.40;;;1.33;;
19800;SDS011;10060;48.274;12.214;2023-03-25T04:45:00;2.73;;;1.30;;
19800;SDS011;10060;48.274;12.214;2023-03-25T04:48:03;3.63;;;1.67;;
19800;SDS011;10060;48.274;12.214;2023-03-25T04:51:06;2.10;;;1.70;;
19800;SDS011;10060;48.274;12.214;2023-03-25T04:54:11;3.27;;;1.60;;
19800;SDS011;10060;48.274;12.214;2023-03-25T04:57:14;3.30;;;1.50;;
19800;SDS011;10060;48.274;12.214;2023-03-25T05:00:18;3.27;;;1.50;;
19800;SDS011;10060;48.274;12.214;2023-03-25T05:03:21;3.33;;;1.50;;
19800;SDS011;10060;48.274;12.214;2023-03-25T05:06:23;4.00;;;1.40;;
19800;SDS011;10060;48.274;12.214;2023-03-25T05:09:25;4.87;;;1.80;;
19800;SDS011;10060;48.274;12.214;2023-03-25T05:12:29;2.23;;;1.10;;
19800;SDS011;10060;48.274;12.214;2023-03-25T05:15:33;3.23;;;1.37;;
19800;SDS011;10060;48.274;12.214;2023-03-25T05:18:38;1.60;;;1.30;;
19800;SDS011;10060;48.274;12.214;2023-03-25T05:21:40;1.60;;;1.50;;
19800;SDS011;10060;48.274;12.214;2023-03-25T05:24:42;7.40;;;1.60;;
19800;SDS011;10060;48.274;12.214;2023-03-25T05:27:46;5.00;;;1.50;;
19800;SDS011;10060;48.274;12.214;2023-03-25T05:30:48;2.60;;;1.30;;
19800;SDS011;10060;48.274;12.214;2023-03-25T05:33:50;2.90;;;1.40;;
19800;SDS011;10060;48.274;12.214;2023-03-25T05:36:53;2.50;;;1.30;;
19800;SDS011;10060;48.274;12.214;2023-03-25T05:39:56;4.70;;;1.63;;
19800;SDS011;10060;48.274;12.214;2023-03-25T05:42:59;1.30;;;1.20;;
19800;SDS011;10060;48.274;12.214;2023-03-25T05:46:02;1.80;;;1.40;;
19800;SDS011;10060;48.274;12.214;2023-03-25T05:49:04;3.63;;;1.60;;
19800;SDS011;10060;48.274;12.214;2023-03-25T05:52:06;3.77;;;1.43;;
19800;SDS011;10060;48.274;12.214;2023-03-25T05:55:11;2.97;;;1.60;;
19800;SDS011;10060;48.274;12.214;2023-03-25T05:58:17;5.20;;;1.47;;
19800;SDS011;10060;48.274;12.214;2023-03-25T06:01:19;5.23;;;2.13;;
19800;SDS011;10060;48.274;12.214;2023-03-25T06:04:22;4.27;;;1.57;;
19800;SDS011;10060;48.274;12.214;2023-03-25T06:07:24;4.83;;;1.50;;
19800;SDS011;10060;48.274;12.214;2023-03-25T06:10:26;4.50;;;1.53;;
19800;SDS011;10060;48.274;12.214;2023-03-25T06:13:30;6.13;;;2.00;;
19800;SDS011;10060;48.274;12.214;2023-03-25T06:16:37;3.83;;;1.50;;
19800;SDS011;10060;48.274;12.214;2023-03-25T06:19:39;2.60;;;1.37;;
19800;SDS011;10060;48.274;12.214;2023-03-25T06:22:42;4.90;;;1.57;;
19800;SDS011;10060;48.274;12.214;2023-03-25T06:25:44;3.50;;;1.60;;
19800;SDS011;10060;48.274;12.214;2023-03-25T06:28:48;6.67;;;1.60;;
19800;SDS011;10060;48.274;12.214;2023-03-25T06:31:50;6.17;;;1.30;;
19800;SDS011;10060;48.274;12.214;2023-03-25T06:34:52;3.23;;;1.40;;
19800;SDS011;10060;48.274;12.214;2023-03-25T06:37:54;3.90;;;1.50;;
19800;SDS011;10060;48.274;12.214;2023-03-25T06:40:56;3.43;;;1.10;;
19800;SDS011;10060;48.274;12.214;2023-03-25T06:43:59;3.10;;;1.50;;
19800;SDS011;10060;48.274;12.214;2023-03-25T06:47:02;3.37;;;1.40;;
19800;SDS011;10060;48.274;12.214;2023-03-25T06:50:06;3.03;;;1.30;;
19800;SDS011;10060;48.274;12.214;2023-03-25T06:53:08;4.70;;;1.40;;
19800;SDS011;10060;48.274;12.214;2023-03-25T06:56:10;2.93;;;1.53;;
19800;SDS011;10060;48.274;12.214;2023-03-25T06:59:14;1.50;;;1.37;;
19800;SDS011;10060;48.274;12.214;2023-03-25T07:02:16;2.03;;;1.00;;
19800;SDS011;10060;48.274;12.214;2023-03-25T07:05:18;2.57;;;1.13;;
19800;SDS011;10060;48.274;12.214;2023-03-25T07:08:20;3.30;;;1.10;;
19800;SDS011;10060;48.274;12.214;2023-03-25T07:11:24;1.53;;;1.10;;
19800;SDS011;10060;48.274;12.214;2023-03-25T07:14:28;0.90;;;0.90;;
19800;SDS011;10060;48.274;12.214;2023-03-25T07:17:30;2.17;;;1.20;;
19800;SDS011;10060;48.274;12.214;2023-03-25T07:20:32;1.17;;;0.90;;
19800;SDS011;10060;48.274;12.214;2023-03-25T07:23:34;1.93;;;1.27;;
19800;SDS011;10060;48.274;12.214;2023-03-25T07:26:36;1.07;;;1.03;;
19800;SDS011;10060;48.274;12.214;2023-03-25T07:29:39;3.73;;;1.03;;
19800;SDS011;10060;48.274;12.214;2023-03-25T07:32:42;1.37;;;1.10;;
19800;SDS011;10060;48.274;12.214;2023-03-25T07:35:44;3.77;;;1.13;;
19800;SDS011;10060;48.274;12.214;2023-03-25T07:38:47;1.77;;;1.03;;
19800;SDS011;10060;48.274;12.214;2023-03-25T07:41:49;1.30;;;1.20;;
19800;SDS011;10060;48.274;12.214;2023-03-25T07:44:52;1.17;;;1.10;;
19800;SDS011;10060;48.274;12.214;2023-03-25T07:47:54;0.93;;;0.93;;
19800;SDS011;10060;48.274;12.214;2023-03-25T07:50:57;2.83;;;1.10;;
19800;SDS011;10060;48.274;12.214;2023-03-25T07:53:59;1.10;;;1.10;;
19800;SDS011;10060;48.274;12.214;2023-03-25T07:57:02;1.93;;;1.37;;
19800;SDS011;10060;48.274;12.214;2023-03-25T08:00:06;1.10;;;1.00;;
19800;SDS011;10060;48.274;12.214;2023-03-25T08:03:10;1.37;;;1.27;;
19800;SDS011;10060;48.274;12.214;2023-03-25T08:06:12;1.30;;;1.20;;
19800;SDS011;10060;48.274;12.214;2023-03-25T08:09:14;1.43;;;1.30;;
19800;SDS011;10060;48.274;12.214;2023-03-25T08:12:16;2.20;;;1.20;;
19800;SDS011;10060;48.274;12.214;2023-03-25T08:15:20;2.23;;;1.30;;
19800;SDS011;10060;48.274;12.214;2023-03-25T08:18:23;1.97;;;1.07;;
19800;SDS011;10060;48.274;12.214;2023-03-25T08:21:26;2.20;;;1.20;;
19800;SDS011;10060;48.274;12.214;2023-03-25T08:24:29;1.13;;;1.13;;
19800;SDS011;10060;48.274;12.214;2023-03-25T08:27:31;2.47;;;1.20;;
19800;SDS011;10060;48.274;12.214;2023-03-25T08:30:35;2.13;;;1.27;;
19800;SDS011;10060;48.274;12.214;2023-03-25T08:33:39;1.10;;;1.10;;
19800;SDS011;10060;48.274;12.214;2023-03-25T08:36:41;1.30;;;1.20;;
19800;SDS011;10060;48.274;12.214;2023-03-25T08:39:44;1.37;;;1.27;;
19800;SDS011;10060;48.274;12.214;2023-03-25T08:42:49;1.73;;;1.27;;
19800;SDS011;10060;48.274;12.214;2023-03-25T08:45:52;2.00;;;1.30;;
19800;SDS011;10060;48.274;12.214;2023-03-25T08:48:55;5.73;;;1.70;;
19800;SDS011;10060;48.274;12.214;2023-03-25T08:51:57;4.60;;;1.10;;
19800;SDS011;10060;48.274;12.214;2023-03-25T08:55:00;1.27;;;1.03;;
19800;SDS011;10060;48.274;12.214;2023-03-25T08:58:03;1.47;;;1.10;;
19800;SDS011;10060;48.274;12.214;2023-03-25T09:01:08;4.37;;;1.40;;
19800;SDS011;10060;48.274;12.214;2023-03-25T09:04:11;2.27;;;1.10;;
19800;SDS011;10060;48.274;12.214;2023-03-25T09:07:13;1.67;;;1.17;;
19800;SDS011;10060;48.274;12.214;2023-03-25T09:10:15;2.60;;;1.37;;
19800;SDS011;10060;48.274;12.214;2023-03-25T09:13:17;1.93;;;1.30;;
19800;SDS011;10060;48.274;12.214;2023-03-25T09:16:21;3.57;;;1.40;;
19800;SDS011;10060;48.274;12.214;2023-03-25T09:19:23;5.67;;;1.30;;
19800;SDS011;10060;48.274;12.214;2023-03-25T09:22:25;1.27;;;1.20;;
19800;SDS011;10060;48.274;12.214;2023-03-25T09:25:27;2.27;;;1.03;;
19800;SDS011;10060;48.274;12.214;2023-03-25T09:28:29;0.90;;;0.90;;
19800;SDS011;10060;48.274;12.214;2023-03-25T09:31:33;1.10;;;1.00;;
19800;SDS011;10060;48.274;12.214;2023-03-25T09:34:35;1.27;;;1.10;;
19800;SDS011;10060;48.274;12.214;2023-03-25T09:37:38;0.90;;;0.90;;
19800;SDS011;10060;48.274;12.214;2023-03-25T09:40:40;1.20;;;1.10;;
19800;SDS011;10060;48.274;12.214;2023-03-25T09:43:46;1.20;;;1.10;;
19800;SDS011;10060;48.274;12.214;2023-03-25T09:46:53;1.03;;;1.00;;
19800;SDS011;10060;48.274;12.214;2023-03-25T09:49:56;1.20;;;1.20;;
19800;SDS011;10060;48.274;12.214;2023-03-25T09:53:00;1.70;;;1.20;;
19800;SDS011;10060;48.274;12.214;2023-03-25T09:56:04;2.90;;;1.10;;
19800;SDS011;10060;48.274;12.214;2023-03-25T09:59:08;1.33;;;1.00;;
19800;SDS011;10060;48.274;12.214;2023-03-25T10:02:17;1.00;;;0.90;;
19800;SDS011;10060;48.274;12.214;2023-03-25T10:05:29;1.10;;;1.00;;
19800;SDS011;10060;48.274;12.214;2023-03-25T10:08:43;1.27;;;0.80;;
19800;SDS011;10060;48.274;12.214;2023-03-25T10:11:48;1.10;;;1.07;;
19800;SDS011;10060;48.274;12.214;2023-03-25T10:14:56;1.70;;;0.90;;
19800;SDS011;10060;48.274;12.214;2023-03-25T10:18:07;2.50;;;1.10;;
19800;SDS011;10060;48.274;12.214;2023-03-25T10:21:11;0.80;;;0.80;;
19800;SDS011;10060;48.274;12.214;2023-03-25T10:24:16;1.00;;;1.00;;
19800;SDS011;10060;48.274;12.214;2023-03-25T10:27:20;2.03;;;1.57;;
19800;SDS011;10060;48.274;12.214;2023-03-25T10:30:26;1.20;;;1.10;;
19800;SDS011;10060;48.274;12.214;2023-03-25T10:33:34;2.93;;;1.30;;
19800;SDS011;10060;48.274;12.214;2023-03-25T10:36:37;1.20;;;1.10;;
19800;SDS011;10060;48.274;12.214;2023-03-25T10:39:40;1.03;;;1.03;;
19800;SDS011;10060;48.274;12.214;2023-03-25T10:42:46;1.00;;;1.00;;
19800;SDS011;10060;48.274;12.214;2023-03-25T10:45:55;1.23;;;1.00;;
19800;SDS011;10060;48.274;12.214;2023-03-25T10:49:00;1.23;;;1.13;;
19800;SDS011;10060;48.274;12.214;2023-03-25T10:52:02;2.63;;;1.27;;
19800;SDS011;10060;48.274;12.214;2023-03-25T10:55:04;2.00;;;1.00;;
19800;SDS011;10060;48.274;12.214;2023-03-25T10:58:15;1.20;;;1.00;;
19800;SDS011;10060;48.274;12.214;2023-03-25T11:01:19;1.23;;;1.13;;
19800;SDS011;10060;48.274;12.214;2023-03-25T11:04:25;1.77;;;0.90;;
19800;SDS011;10060;48.274;12.214;2023-03-25T11:07:31;1.43;;;1.10;;
19800;SDS011;10060;48.274;12.214;2023-03-25T11:10:34;1.20;;;1.10;;
19800;SDS011;10060;48.274;12.214;2023-03-25T11:13:36;1.70;;;1.10;;
19800;SDS011;10060;48.274;12.214;2023-03-25T11:16:41;1.60;;;1.00;;
19800;SDS011;10060;48.274;12.214;2023-03-25T11:19:48;2.57;;;1.00;;
19800;SDS011;10060;48.274;12.214;2023-03-25T11:22:53;1.37;;;1.00;;
19800;SDS011;10060;48.274;12.214;2023-03-25T11:26:01;1.00;;;1.00;;
19800;SDS011;10060;48.274;12.214;2023-03-25T11:29:07;0.90;;;0.90;;
19800;SDS011;10060;48.274;12.214;2023-03-25T11:32:12;1.30;;;1.20;;
19800;SDS011;10060;48.274;12.214;2023-03-25T11:35:17;1.57;;;0.93;;
19800;SDS011;10060;48.274;12.214;2023-03-25T11:38:21;3.17;;;1.07;;
19800;SDS011;10060;48.274;12.214;2023-03-25T11:41:26;4.57;;;1.10;;
19800;SDS011;10060;48.274;12.214;2023-03-25T11:44:31;1.27;;;1.10;;
19800;SDS011;10060;48.274;12.214;2023-03-25T11:47:34;1.43;;;1.33;;
19800;SDS011;10060;48.274;12.214;2023-03-25T11:50:43;1.87;;;1.03;;
19800;SDS011;10060;48.274;12.214;2023-03-25T11:53:45;0.93;;;0.90;;
19800;SDS011;10060;48.274;12.214;2023-03-25T11:56:49;0.97;;;0.97;;
19800;SDS011;10060;48.274;12.214;2023-03-25T11:59:57;1.37;;;1.17;;
19800;SDS011;10060;48.274;12.214;2023-03-25T12:03:08;3.70;;;0.90;;
19800;SDS011;10060;48.274;12.214;2023-03-25T12:06:19;0.90;;;0.90;;
19800;SDS011;10060;48.274;12.214;2023-03-25T12:09:22;1.53;;;1.00;;
19800;SDS011;10060;48.274;12.214;2023-03-25T12:12:27;1.00;;;1.00;;
19800;SDS011;10060;48.274;12.214;2023-03-25T12:15:34;1.47;;;0.93;;
19800;SDS011;10060;48.274;12.214;2023-03-25T12:18:41;1.20;;;1.10;;
19800;SDS011;10060;48.274;12.214;2023-03-25T12:21:51;1.00;;;0.80;;
19800;SDS011;10060;48.274;12.214;2023-03-25T12:25:00;3.97;;;0.80;;
19800;SDS011;10060;48.274;12.214;2023-03-25T12:28:06;0.80;;;0.80;;
19800;SDS011;10060;48.274;12.214;2023-03-25T12:31:13;0.80;;;0.80;;
19800;SDS011;10060;48.274;12.214;2023-03-25T12:34:23;0.90;;;0.90;;
19800;SDS011;10060;48.274;12.214;2023-03-25T12:37:31;1.47;;;1.37;;
19800;SDS011;10060;48.274;12.214;2023-03-25T12:40:38;0.73;;;0.73;;
19800;SDS011;10060;48.274;12.214;2023-03-25T12:43:47;0.80;;;0.80;;
19800;SDS011;10060;48.274;12.214;2023-03-25T12:47:06;0.80;;;0.80;;
19800;SDS011;10060;48.274;12.214;2023-03-25T12:50:18;1.23;;;0.90;;
19800;SDS011;10060;48.274;12.214;2023-03-25T12:53:27;1.07;;;1.00;;
19800;SDS011;10060;48.274;12.214;2023-03-25T12:56:36;0.90;;;0.90;;
19800;SDS011;10060;48.274;12.214;2023-03-25T12:59:49;1.10;;;1.10;;
19800;SDS011;10060;48.274;12.214;2023-03-25T13:03:01;0.90;;;0.90;;
19800;SDS011;10060;48.274;12.214;2023-03-25T13:06:08;0.77;;;0.77;;
19800;SDS011;10060;48.274;12.214;2023-03-25T13:09:17;1.50;;;0.90;;
19800;SDS011;10060;48.274;12.214;2023-03-25T13:12:25;0.90;;;0.90;;
19800;SDS011;10060;48.274;12.214;2023-03-25T13:15:29;0.77;;;0.77;;
19800;SDS011;10060;48.274;12.214;2023-03-25T13:18:34;0.80;;;0.80;;
19800;SDS011;10060;48.274;12.214;2023-03-25T13:21:38;0.90;;;0.90;;
19800;SDS011;10060;48.274;12.214;2023-03-25T13:24:43;1.03;;;0.97;;
19800;SDS011;10060;48.274;12.214;2023-03-25T13:27:48;0.80;;;0.80;;
19800;SDS011;10060;48.274;12.214;2023-03-25T13:30:52;1.93;;;1.00;;
19800;SDS011;10060;48.274;12.214;2023-03-25T13:33:55;1.70;;;1.00;;
19800;SDS011;10060;48.274;12.214;2023-03-25T13:37:04;2.27;;;0.97;;
19800;SDS011;10060;48.274;12.214;2023-03-25T13:40:16;5.03;;;1.10;;
19800;SDS011;10060;48.274;12.214;2023-03-25T13:43:24;0.80;;;0.80;;
19800;SDS011;10060;48.274;12.214;2023-03-25T13:46:28;0.90;;;0.90;;
19800;SDS011;10060;48.274;12.214;2023-03-25T13:49:33;0.93;;;0.90;;
19800;SDS011;10060;48.274;12.214;2023-03-25T13:52:38;1.20;;;1.10;;
19800;SDS011;10060;48.274;12.214;2023-03-25T13:55:45;0.90;;;0.90;;
19800;SDS011;10060;48.274;12.214;2023-03-25T13:58:54;0.90;;;0.90;;
19800;SDS011;10060;48.274;12.214;2023-03-25T14:02:02;0.90;;;0.90;;
19800;SDS011;10060;48.274;12.214;2023-03-25T14:08:34;0.90;;;0.90;;
19800;SDS011;10060;48.274;12.214;2023-03-25T14:11:45;2.10;;;0.90;;
19800;SDS011;10060;48.274;12.214;2023-03-25T14:14:50;0.80;;;0.80;;
19800;SDS011;10060;48.274;12.214;2023-03-25T14:17:55;1.37;;;1.27;;
19800;SDS011;10060;48.274;12.214;2023-03-25T14:20:57;2.30;;;1.00;;
19800;SDS011;10060;48.274;12.214;2023-03-25T14:24:16;1.00;;;1.00;;
19800;SDS011;10060;48.274;12.214;2023-03-25T14:27:22;0.80;;;0.80;;
19800;SDS011;10060;48.274;12.214;2023-03-25T14:30:27;0.80;;;0.80;;
19800;SDS011;10060;48.274;12.214;2023-03-25T14:33:38;1.00;;;1.00;;
19800;SDS011;10060;48.274;12.214;2023-03-25T14:40:44;1.10;;;1.00;;
19800;SDS011;10060;48.274;12.214;2023-03-25T14:43:57;4.43;;;0.83;;
19800;SDS011;10060;48.274;12.214;2023-03-25T14:47:28;0.80;;;0.80;;
19800;SDS011;10060;48.274;12.214;2023-03-25T14:50:31;0.80;;;0.80;;
19800;SDS011;10060;48.274;12.214;2023-03-25T14:53:34;1.00;;;1.00;;
19800;SDS011;10060;48.274;12.214;2023-03-25T14:56:37;2.03;;;0.83;;
19800;SDS011;10060;48.274;12.214;2023-03-25T14:59:44;0.90;;;0.90;;
19800;SDS011;10060;48.274;12.214;2023-03-25T15:02:50;1.37;;;1.27;;
19800;SDS011;10060;48.274;12.214;2023-03-25T15:05:52;0.93;;;0.90;;
19800;SDS011;10060;48.274;12.214;2023-03-25T15:08:55;1.70;;;0.97;;
19800;SDS011;10060;48.274;12.214;2023-03-25T15:12:00;1.20;;;1.10;;
19800;SDS011;10060;48.274;12.214;2023-03-25T15:15:05;0.80;;;0.80;;
19800;SDS011;10060;48.274;12.214;2023-03-25T15:18:09;1.20;;;1.10;;
19800;SDS011;10060;48.274;12.214;2023-03-25T15:21:12;1.10;;;1.00;;
19800;SDS011;10060;48.274;12.214;2023-03-25T15:24:15;1.03;;;1.00;;
19800;SDS011;10060;48.274;12.214;2023-03-25T15:30:50;1.10;;;1.10;;
19800;SDS011;10060;48.274;12.214;2023-03-25T15:34:02;1.30;;;1.20;;
19800;SDS011;10060;48.274;12.214;2023-03-25T15:40:37;1.03;;;1.00;;
19800;SDS011;10060;48.274;12.214;2023-03-25T15:43:47;2.47;;;1.00;;
19800;SDS011;10060;48.274;12.214;2023-03-25T15:50:27;2.03;;;1.10;;
19800;SDS011;10060;48.274;12.214;2023-03-25T15:53:33;1.07;;;1.00;;
19800;SDS011;10060;48.274;12.214;2023-03-25T15:56:39;1.30;;;1.20;;
19800;SDS011;10060;48.274;12.214;2023-03-25T15:59:42;1.53;;;1.00;;
19800;SDS011;10060;48.274;12.214;2023-03-25T16:02:46;2.47;;;1.50;;
19800;SDS011;10060;48.274;12.214;2023-03-25T16:05:51;1.53;;;1.27;;
19800;SDS011;10060;48.274;12.214;2023-03-25T16:08:54;1.10;;;1.10;;
19800;SDS011;10060;48.274;12.214;2023-03-25T16:11:58;1.80;;;1.20;;
19800;SDS011;10060;48.274;12.214;2023-03-25T16:15:03;1.87;;;1.07;;
19800;SDS011;10060;48.274;12.214;2023-03-25T16:18:06;2.03;;;1.20;;
19800;SDS011;10060;48.274;12.214;2023-03-25T16:21:11;1.00;;;1.00;;
19800;SDS011;10060;48.274;12.214;2023-03-25T16:24:14;1.10;;;1.00;;
19800;SDS011;10060;48.274;12.214;2023-03-25T16:27:21;2.00;;;1.47;;
19800;SDS011;10060;48.274;12.214;2023-03-25T16:30:24;1.63;;;1.20;;
19800;SDS011;10060;48.274;12.214;2023-03-25T16:33:28;1.33;;;1.10;;
19800;SDS011;10060;48.274;12.214;2023-03-25T16:36:32;3.20;;;1.43;;
19800;SDS011;10060;48.274;12.214;2023-03-25T16:39:34;1.77;;;1.37;;
19800;SDS011;10060;48.274;12.214;2023-03-25T16:42:37;1.60;;;1.50;;
19800;SDS011;10060;48.274;12.214;2023-03-25T16:45:39;1.43;;;1.33;;
19800;SDS011;10060;48.274;12.214;2023-03-25T16:48:42;1.50;;;1.40;;
19800;SDS011;10060;48.274;12.214;2023-03-25T16:51:50;1.63;;;1.30;;
19800;SDS011;10060;48.274;12.214;2023-03-25T16:55:12;2.17;;;1.40;;
19800;SDS011;10060;48.274;12.214;2023-03-25T16:58:16;1.50;;;1.40;;
19800;SDS011;10060;48.274;12.214;2023-03-25T17:01:19;2.13;;;1.20;;
19800;SDS011;10060;48.274;12.214;2023-03-25T17:04:22;2.53;;;1.30;;
19800;SDS011;10060;48.274;12.214;2023-03-25T17:07:26;2.37;;;1.50;;
19800;SDS011;10060;48.274;12.214;2023-03-25T17:10:30;3.27;;;1.10;;
19800;SDS011;10060;48.274;12.214;2023-03-25T17:13:34;1.60;;;1.50;;
19800;SDS011;10060;48.274;12.214;2023-03-25T17:16:38;5.27;;;1.20;;
19800;SDS011;10060;48.274;12.214;2023-03-25T17:19:41;1.70;;;1.60;;
19800;SDS011;10060;48.274;12.214;2023-03-25T17:22:57;1.70;;;1.60;;
19800;SDS011;10060;48.274;12.214;2023-03-25T17:26:00;1.30;;;1.30;;
19800;SDS011;10060;48.274;12.214;2023-03-25T17:29:04;1.80;;;1.20;;
19800;SDS011;10060;48.274;12.214;2023-03-25T17:32:07;1.40;;;1.30;;
19800;SDS011;10060;48.274;12.214;2023-03-25T17:35:18;2.60;;;1.43;;
19800;SDS011;10060;48.274;12.214;2023-03-25T17:38:24;2.20;;;1.60;;
19800;SDS011;10060;48.274;12.214;2023-03-25T17:41:28;2.23;;;1.60;;
19800;SDS011;10060;48.274;12.214;2023-03-25T17:44:31;4.40;;;1.40;;
19800;SDS011;10060;48.274;12.214;2023-03-25T17:47:35;2.73;;;1.50;;
19800;SDS011;10060;48.274;12.214;2023-03-25T17:50:37;2.40;;;1.70;;
19800;SDS011;10060;48.274;12.214;2023-03-25T17:53:40;1.63;;;1.40;;
19800;SDS011;10060;48.274;12.214;2023-03-25T17:56:42;3.23;;;1.63;;
19800;SDS011;10060;48.274;12.214;2023-03-25T17:59:45;2.13;;;1.70;;
19800;SDS011;10060;48.274;12.214;2023-03-25T18:02:48;1.60;;;1.50;;
19800;SDS011;10060;48.274;12.214;2023-03-25T18:05:50;1.93;;;1.70;;
19800;SDS011;10060;48.274;12.214;2023-03-25T18:08:54;2.93;;;1.70;;
19800;SDS011;10060;48.274;12.214;2023-03-25T18:11:56;1.67;;;1.57;;
19800;SDS011;10060;48.274;12.214;2023-03-25T18:14:59;2.17;;;1.40;;
19800;SDS011;10060;48.274;12.214;2023-03-25T18:18:01;1.57;;;1.47;;
19800;SDS011;10060;48.274;12.214;2023-03-25T18:21:05;1.50;;;1.40;;
19800;SDS011;10060;48.274;12.214;2023-03-25T18:24:08;2.47;;;1.50;;
19800;SDS011;10060;48.274;12.214;2023-03-25T18:27:10;1.57;;;1.47;;
19800;SDS011;10060;48.274;12.214;2023-03-25T18:30:15;2.20;;;2.00;;
19800;SDS011;10060;48.274;12.214;2023-03-25T18:33:18;1.57;;;1.47;;